Hauptseite
METAR-TAF:

METAR-TAF

Flughäfen :

Flughafen Taschkent

Taschkent, Usbekistan

Breite: 41-16N, Länge: 069-16E, Höhe: 489 m

Beobachtung

Neuester Wetterbericht von vor 26 Minuten, um 03:00 UTC
Wind 2 kt aus Nordost
Temperatur 23°C
Luftfeuchtigkeit 44%
Luftdruck 1015 hPa
Sichtweite 10 km oder mehr
keine Wolken unter 1500 m und keine Kumulonimbus oder Gewitterwolken

METAR: UTTT 250300Z 05002KT CAVOK 23/10 Q1015 R08R/CLRD70 NOSIG

Zeit: 08:26 (03:26 UTC)

Prognose

Neuester Wetterbericht von vor 4 Stunden und 26 Minuten, um 23:00 UTC
Gültige Prognose vom 25 um 00 UTC bis 25 um 24 UTC
Wind 10 kt aus Ost

TAF: UTTT 242300Z 2500/2524 08010KT CAV0K

Wetterbeobachtungen und Prognosen von mehr als 4000 Flughäfen (METAR und TAF Bericht).

Die verfügbaren Stationen werden durch gelbe und rote Markierungen auf der Karte dargestellt.

Führen Sie die Maus auf sie, um den Namen der Station zu sehen.

Darauf klicken, um die Beobachtung von Wetterbeobachtungen und Prognosen zu sehen.

Um die Karte zu ändern : klicken Sie auf den grünen Tasten mit einem schwarzen Kreuz Zum Vergrößern, auf den grünen Button mit einem Gedankenstrich zu verkleinern, oder auf die grünen Pfeile für benachbarte Karten.


METAR-TAF: